This is the latest recevied weather packets stored in our database for station/object N5CNB-2. If no packets are shown the sender has not sent any weather packets the latest 10 day(s).
| Time | Temp. | Humidity | Pressure | Rain* | Wind** | Luminosity | Snow |
|---|---|---|---|---|---|---|---|
| 1777171553 | 24.44° C | 83% | 1007.1 hPa | 0 mm | - | - | - |
| 1777170652 | 25° C | 82% | 1006.9 hPa | 0 mm | - | - | - |
| 1777169754 | 25° C | 82% | 1006.5 hPa | 0 mm | - | - | - |
| 1777168853 | 25.56° C | 81% | 1006.3 hPa | 0 mm | - | - | - |
| 1777167955 | 25.56° C | 80% | 1006.4 hPa | 0 mm | - | - | - |
| 1777167058 | 26.11° C | 80% | 1006.1 hPa | 0 mm | - | - | - |
| 1777166153 | 26.11° C | 79% | 1005.9 hPa | 0 mm | - | - | - |
| 1777165249 | 26.67° C | 78% | 1006.1 hPa | 0 mm | - | - | - |
| 1777164358 | 27.22° C | 77% | 1005.8 hPa | 0 mm | - | - | - |
| 1777163461 | 27.78° C | 76% | 1005.9 hPa | 0 mm | - | - | - |
| 1777162551 | 28.33° C | 74% | 1006.1 hPa | 0 mm | - | - | - |
| 1777161651 | 28.89° C | 73% | 1006 hPa | 0 mm | - | - | - |
| 1777160751 | 29.44° C | 71% | 1005.9 hPa | 0 mm | - | - | - |
| 1777159851 | 30° C | 71% | 1005.9 hPa | 0 mm | - | - | - |
| 1777158952 | 30° C | 71% | 1006.1 hPa | 0 mm | - | - | - |
| 1777158075 | 30° C | 72% | 1006 hPa | 0 mm | - | - | - |
| 1777157159 | 30.56° C | 69% | 1006 hPa | 0 mm | - | - | - |
| 1777156253 | 31.11° C | 69% | 1006 hPa | 0 mm | - | - | - |
| 1777155357 | 31.11° C | 68% | 1006 hPa | 0 mm | - | - | - |
| 1777154457 | 31.11° C | 66% | 1006 hPa | 0 mm | - | - | - |
| 1777153557 | 31.11° C | 67% | 1006 hPa | 0 mm | - | - | - |
| 1777152661 | 32.22° C | 63% | 1006.2 hPa | 0 mm | - | - | - |
| 1777151760 | 32.22° C | 65% | 1006.2 hPa | 0 mm | - | - | - |
| 1777150860 | 31.67° C | 65% | 1006.3 hPa | 0 mm | - | - | - |
| 1777149954 | 31.67° C | 65% | 1006.5 hPa | 0 mm | - | - | - |
* Rain latest hour (hover to see other rain measurements)
** Current wind speed in m/s (hover to see current wind gust speed)